createdAt,value
2018-12-16T00:00:57.039Z,99.90
2018-12-16T00:05:42.339Z,99.90
2018-12-16T00:10:28.034Z,99.90
2018-12-16T00:15:13.484Z,99.90
2018-12-16T00:19:58.468Z,99.90
2018-12-16T00:24:43.253Z,99.90
2018-12-16T00:29:28.155Z,99.90
2018-12-16T00:34:13.152Z,99.90
2018-12-16T00:38:58.016Z,99.90
2018-12-16T00:43:43.358Z,99.90
2018-12-16T00:48:28.431Z,99.90
2018-12-16T00:53:13.255Z,99.90
2018-12-16T00:57:59.322Z,99.90
2018-12-16T01:02:44.201Z,99.90
2018-12-16T01:07:29.064Z,99.90
2018-12-16T01:12:13.820Z,99.90
2018-12-16T01:16:58.715Z,99.90
2018-12-16T01:21:43.504Z,99.90
2018-12-16T01:26:28.323Z,99.90
2018-12-16T01:31:13.092Z,99.90
2018-12-16T01:35:57.914Z,99.90
2018-12-16T01:40:42.722Z,99.90
2018-12-16T01:45:27.624Z,99.90
2018-12-16T01:50:12.639Z,99.90
2018-12-16T01:54:57.729Z,99.90
2018-12-16T01:59:42.542Z,99.90
2018-12-16T02:04:27.490Z,99.90
2018-12-16T02:09:12.238Z,99.90
2018-12-16T02:13:57.094Z,99.90
2018-12-16T02:18:41.996Z,99.90
2018-12-16T02:23:27.314Z,99.90
2018-12-16T02:28:12.172Z,99.90
2018-12-16T02:32:57.179Z,99.90
2018-12-16T02:37:42.018Z,99.90
2018-12-16T02:42:26.981Z,99.90
2018-12-16T02:47:12.024Z,99.90
2018-12-16T02:51:57.593Z,99.90
2018-12-16T02:56:42.385Z,99.90
2018-12-16T03:01:27.332Z,99.90
2018-12-16T03:06:12.256Z,99.90
2018-12-16T03:10:57.231Z,96.80
2018-12-16T03:15:42.668Z,81.70
2018-12-16T03:20:29.023Z,78.90
2018-12-16T03:25:13.893Z,79.20
2018-12-16T03:29:59.234Z,78.20
2018-12-16T03:34:44.150Z,73.50
2018-12-16T03:39:29.057Z,71.30
2018-12-16T03:44:14.294Z,77.30
2018-12-16T03:49:00.395Z,92.00
2018-12-16T03:53:45.212Z,99.90
2018-12-16T03:58:30.198Z,99.90
2018-12-16T04:03:15.104Z,99.90
2018-12-16T04:08:00.486Z,99.90
2018-12-16T04:12:45.311Z,99.90
2018-12-16T04:17:30.355Z,99.90
2018-12-16T04:22:15.158Z,99.90
2018-12-16T04:27:00.303Z,99.90
2018-12-16T04:31:45.109Z,99.90
2018-12-16T04:36:29.942Z,99.90
2018-12-16T04:41:14.810Z,99.90
2018-12-16T04:45:59.643Z,99.90
2018-12-16T04:50:44.744Z,99.90
2018-12-16T04:55:29.535Z,99.90
2018-12-16T05:00:14.326Z,99.90
2018-12-16T05:04:59.211Z,99.90
2018-12-16T05:09:44.306Z,99.90
2018-12-16T05:14:29.335Z,99.90
2018-12-16T05:19:14.563Z,99.90
2018-12-16T05:23:59.346Z,99.90
2018-12-16T05:28:44.172Z,99.90
2018-12-16T05:33:29.022Z,99.90
2018-12-16T05:38:13.898Z,99.90
2018-12-16T05:42:58.808Z,99.90
2018-12-16T05:47:43.611Z,99.90
2018-12-16T05:52:28.404Z,99.90
2018-12-16T05:57:13.284Z,99.90
2018-12-16T06:01:58.145Z,99.90
2018-12-16T06:06:42.953Z,99.90
2018-12-16T06:11:27.703Z,99.90
2018-12-16T06:16:12.487Z,99.90
2018-12-16T06:20:57.271Z,99.90
2018-12-16T06:25:42.038Z,99.90
2018-12-16T06:30:28.922Z,99.90
2018-12-16T06:35:13.695Z,99.90
2018-12-16T06:39:58.395Z,99.90
2018-12-16T06:44:43.158Z,99.90
2018-12-16T06:49:27.966Z,99.90
2018-12-16T06:54:12.703Z,99.90
2018-12-16T06:58:57.562Z,99.90
2018-12-16T07:03:42.393Z,99.90
2018-12-16T07:08:27.180Z,99.90
2018-12-16T07:13:11.904Z,99.90
2018-12-16T07:17:56.630Z,99.90
2018-12-16T07:22:41.509Z,99.90
2018-12-16T07:27:26.474Z,99.90
2018-12-16T07:32:11.309Z,99.90
2018-12-16T07:36:56.170Z,99.90
2018-12-16T07:41:40.960Z,99.90
2018-12-16T07:46:25.748Z,99.90
2018-12-16T07:51:10.535Z,99.90
2018-12-16T07:55:55.435Z,99.90
2018-12-16T08:00:40.326Z,99.90
2018-12-16T08:05:25.460Z,99.90
2018-12-16T08:10:10.273Z,99.90
2018-12-16T08:14:55.144Z,99.90
2018-12-16T08:19:41.024Z,99.90
2018-12-16T08:24:25.945Z,99.90
2018-12-16T08:29:10.892Z,99.90
2018-12-16T08:33:55.670Z,99.90
2018-12-16T08:38:40.570Z,99.90
2018-12-16T08:43:25.610Z,99.90
2018-12-16T08:48:10.490Z,99.90
2018-12-16T08:52:55.412Z,99.90
2018-12-16T08:57:40.477Z,99.90
2018-12-16T09:02:25.381Z,99.90
2018-12-16T09:07:10.405Z,99.90
2018-12-16T09:11:55.223Z,99.90
2018-12-16T09:16:40.098Z,99.90
2018-12-16T09:21:24.911Z,99.90
2018-12-16T09:26:09.644Z,99.90
2018-12-16T09:30:57.992Z,99.90
2018-12-16T09:35:41.629Z,99.90
2018-12-16T09:40:27.116Z,99.90
2018-12-16T09:45:12.221Z,99.90
2018-12-16T09:49:57.137Z,99.90
2018-12-16T09:54:44.403Z,99.90
2018-12-16T09:59:29.013Z,99.90
2018-12-16T10:04:13.774Z,99.90
2018-12-16T10:08:58.599Z,99.90
2018-12-16T10:13:43.411Z,99.90
2018-12-16T10:18:28.252Z,99.90
2018-12-16T10:23:13.056Z,99.90
2018-12-16T10:27:57.957Z,99.90
2018-12-16T10:32:42.889Z,99.90
2018-12-16T10:37:28.027Z,99.90
2018-12-16T10:42:12.942Z,99.90
2018-12-16T10:46:57.937Z,99.90
2018-12-16T10:51:43.614Z,99.90
2018-12-16T10:56:28.671Z,99.90
2018-12-16T11:01:18.776Z,99.90
2018-12-16T11:06:03.657Z,99.90
2018-12-16T11:10:48.512Z,99.90
2018-12-16T11:15:34.740Z,99.90
2018-12-16T11:20:19.599Z,99.90
2018-12-16T11:25:05.889Z,99.90
2018-12-16T11:29:50.967Z,99.90
2018-12-16T11:34:35.858Z,99.90
2018-12-16T11:39:20.797Z,99.90
2018-12-16T11:44:05.687Z,99.90
2018-12-16T11:48:50.950Z,99.90
2018-12-16T11:53:35.894Z,99.90
2018-12-16T11:58:20.742Z,99.90
2018-12-16T12:03:05.574Z,99.90
2018-12-16T12:07:50.435Z,99.90
2018-12-16T12:12:35.377Z,99.90
2018-12-16T12:17:20.272Z,99.90
2018-12-16T12:22:05.299Z,99.90
2018-12-16T12:26:50.899Z,99.90
2018-12-16T12:31:35.824Z,99.90
2018-12-16T12:36:20.678Z,99.90
2018-12-16T12:41:05.496Z,99.90
2018-12-16T12:45:50.343Z,99.90
2018-12-16T12:50:35.215Z,99.90
2018-12-16T12:55:26.656Z,99.90
2018-12-16T13:00:11.278Z,99.90
2018-12-16T13:04:56.123Z,99.90
2018-12-16T13:09:40.883Z,99.90
2018-12-16T13:14:25.725Z,99.90
2018-12-16T13:19:11.007Z,99.90
2018-12-16T13:23:55.874Z,99.90
2018-12-16T13:28:40.798Z,99.90
2018-12-16T13:33:25.656Z,99.90
2018-12-16T13:38:10.623Z,99.90
2018-12-16T13:42:55.694Z,99.90
2018-12-16T13:47:40.631Z,99.90
2018-12-16T13:52:25.560Z,99.90
2018-12-16T13:57:10.533Z,99.90
2018-12-16T14:01:55.539Z,99.90
2018-12-16T14:06:40.876Z,99.90
2018-12-16T14:11:26.133Z,99.90
2018-12-16T14:16:11.393Z,99.90
2018-12-16T14:20:56.744Z,99.90
2018-12-16T14:25:48.000Z,99.90
2018-12-16T14:30:29.363Z,99.90
2018-12-16T14:35:15.045Z,99.90
2018-12-16T14:40:00.379Z,99.90
2018-12-16T14:44:45.560Z,99.90
2018-12-16T14:49:30.981Z,99.90
2018-12-16T14:54:16.601Z,99.90
2018-12-16T14:59:01.545Z,99.90
2018-12-16T15:03:46.896Z,99.90
2018-12-16T15:08:32.068Z,99.90
2018-12-16T15:13:17.390Z,99.90
2018-12-16T15:18:03.298Z,99.90
2018-12-16T15:22:50.413Z,99.90
2018-12-16T15:27:35.829Z,99.90
2018-12-16T15:32:20.821Z,99.90
2018-12-16T15:37:05.751Z,99.90
2018-12-16T15:41:50.643Z,99.90
2018-12-16T15:46:35.613Z,99.90
2018-12-16T15:51:20.504Z,99.90
2018-12-16T15:56:09.223Z,99.90
2018-12-16T16:00:52.353Z,99.90
2018-12-16T16:05:37.208Z,99.90
2018-12-16T16:10:22.115Z,99.90
2018-12-16T16:15:08.141Z,99.90
2018-12-16T16:19:53.032Z,99.90
2018-12-16T16:24:37.890Z,99.90
2018-12-16T16:29:22.827Z,99.90
2018-12-16T16:34:07.891Z,99.90
2018-12-16T16:38:52.921Z,99.90
2018-12-16T16:43:38.081Z,99.90
2018-12-16T16:48:23.158Z,99.90
2018-12-16T16:53:08.024Z,99.90
2018-12-16T16:57:52.974Z,99.90
2018-12-16T17:02:37.861Z,99.90
2018-12-16T17:07:22.828Z,99.90
2018-12-16T17:12:07.857Z,99.90
2018-12-16T17:16:52.789Z,99.90
2018-12-16T17:21:38.750Z,99.90
2018-12-16T17:26:29.865Z,99.90
2018-12-16T17:31:11.087Z,99.90
2018-12-16T17:35:56.220Z,99.90
2018-12-16T17:40:41.389Z,99.90
2018-12-16T17:45:26.390Z,99.90
2018-12-16T17:50:11.367Z,99.90
2018-12-16T17:54:56.279Z,99.90
2018-12-16T17:59:41.559Z,99.90
2018-12-16T18:04:26.769Z,99.90
2018-12-16T18:09:11.699Z,99.90
2018-12-16T18:13:56.921Z,99.90
2018-12-16T18:18:41.860Z,99.90
2018-12-16T18:23:29.743Z,99.90
2018-12-16T18:28:13.641Z,99.90
2018-12-16T18:32:58.752Z,99.90
2018-12-16T18:37:44.129Z,99.90
2018-12-16T18:42:29.227Z,99.90
2018-12-16T18:47:14.178Z,99.90
2018-12-16T18:51:59.278Z,99.90
2018-12-16T18:56:50.881Z,99.90
2018-12-16T19:01:31.453Z,99.90
2018-12-16T19:06:16.482Z,99.90
2018-12-16T19:11:01.359Z,99.90
2018-12-16T19:15:46.218Z,99.90
2018-12-16T19:20:31.216Z,99.90
2018-12-16T19:25:16.252Z,99.90
2018-12-16T19:30:01.146Z,99.90
2018-12-16T19:34:46.100Z,99.90
2018-12-16T19:39:31.143Z,99.90
2018-12-16T19:44:16.073Z,99.90
2018-12-16T19:49:01.641Z,99.90
2018-12-16T19:53:46.918Z,99.90
2018-12-16T19:58:32.414Z,99.90
2018-12-16T20:03:17.849Z,99.90
2018-12-16T20:08:03.202Z,99.90
2018-12-16T20:12:48.461Z,99.90
2018-12-16T20:17:33.477Z,99.90
2018-12-16T20:22:18.832Z,99.90
2018-12-16T20:27:04.043Z,99.90
2018-12-16T20:31:49.355Z,99.90
2018-12-16T20:36:34.678Z,99.90
2018-12-16T20:41:19.907Z,99.90
2018-12-16T20:46:05.236Z,99.90
2018-12-16T20:50:50.589Z,99.90
2018-12-16T20:55:36.027Z,99.90
2018-12-16T21:00:21.381Z,99.90
2018-12-16T21:05:07.078Z,99.90
2018-12-16T21:09:52.358Z,99.90
2018-12-16T21:14:42.667Z,99.90
2018-12-16T21:19:34.914Z,99.90
2018-12-16T21:24:20.173Z,99.90
2018-12-16T21:29:05.284Z,99.90
2018-12-16T21:33:50.234Z,99.90
2018-12-16T21:38:35.615Z,99.90
2018-12-16T21:43:20.685Z,99.90
2018-12-16T21:48:05.750Z,99.90
2018-12-16T21:52:50.899Z,99.90
2018-12-16T21:57:36.240Z,99.90
2018-12-16T22:02:21.567Z,99.90
2018-12-16T22:07:06.922Z,99.90
2018-12-16T22:11:51.941Z,99.90
2018-12-16T22:16:37.089Z,99.90
2018-12-16T22:21:22.248Z,99.90
2018-12-16T22:26:07.365Z,99.90
2018-12-16T22:30:52.643Z,99.90
2018-12-16T22:35:37.716Z,99.90
2018-12-16T22:40:23.145Z,99.90
2018-12-16T22:45:08.981Z,99.90
2018-12-16T22:49:54.042Z,99.90
2018-12-16T22:54:39.014Z,99.90
2018-12-16T22:59:23.978Z,99.90
2018-12-16T23:04:09.026Z,99.90
2018-12-16T23:08:53.941Z,99.90
2018-12-16T23:13:38.771Z,99.90
2018-12-16T23:18:23.707Z,99.90
2018-12-16T23:23:08.653Z,99.90
2018-12-16T23:27:54.323Z,99.90
2018-12-16T23:32:39.415Z,99.90
2018-12-16T23:37:24.426Z,99.90
2018-12-16T23:42:09.364Z,99.90
2018-12-16T23:46:54.271Z,99.90
2018-12-16T23:51:39.126Z,99.90
2018-12-16T23:56:23.883Z,99.90
